sensor_id;sensor_type;location;lat;lon;timestamp;P1;durP1;ratioP1;P2;durP2;ratioP2
22005;SDS011;11167;46.988;15.470;2023-08-07T00:01:55;2.05;;;0.40;;
22005;SDS011;11167;46.988;15.470;2023-08-07T00:03:56;0.28;;;0.28;;
22005;SDS011;11167;46.988;15.470;2023-08-07T00:05:57;1.37;;;0.40;;
22005;SDS011;11167;46.988;15.470;2023-08-07T00:07:58;1.12;;;0.40;;
22005;SDS011;11167;46.988;15.470;2023-08-07T00:09:59;1.05;;;0.40;;
22005;SDS011;11167;46.988;15.470;2023-08-07T00:12:01;0.82;;;0.35;;
22005;SDS011;11167;46.988;15.470;2023-08-07T00:14:04;2.17;;;0.60;;
22005;SDS011;11167;46.988;15.470;2023-08-07T00:16:05;1.15;;;0.40;;
22005;SDS011;11167;46.988;15.470;2023-08-07T00:18:06;2.15;;;0.40;;
22005;SDS011;11167;46.988;15.470;2023-08-07T00:20:08;1.57;;;0.37;;
22005;SDS011;11167;46.988;15.470;2023-08-07T00:22:09;0.95;;;0.40;;
22005;SDS011;11167;46.988;15.470;2023-08-07T00:24:10;0.30;;;0.30;;
22005;SDS011;11167;46.988;15.470;2023-08-07T00:26:11;0.30;;;0.30;;
22005;SDS011;11167;46.988;15.470;2023-08-07T00:28:12;0.30;;;0.25;;
22005;SDS011;11167;46.988;15.470;2023-08-07T00:30:12;1.55;;;0.30;;
22005;SDS011;11167;46.988;15.470;2023-08-07T00:32:14;0.75;;;0.40;;
22005;SDS011;11167;46.988;15.470;2023-08-07T00:34:15;1.75;;;0.20;;
22005;SDS011;11167;46.988;15.470;2023-08-07T00:36:16;1.27;;;0.40;;
22005;SDS011;11167;46.988;15.470;2023-08-07T00:38:17;0.20;;;0.20;;
22005;SDS011;11167;46.988;15.470;2023-08-07T00:40:18;1.60;;;0.37;;
22005;SDS011;11167;46.988;15.470;2023-08-07T00:42:19;0.60;;;0.30;;
22005;SDS011;11167;46.988;15.470;2023-08-07T00:44:20;1.75;;;0.45;;
22005;SDS011;11167;46.988;15.470;2023-08-07T00:46:21;0.50;;;0.33;;
22005;SDS011;11167;46.988;15.470;2023-08-07T00:48:22;0.20;;;0.20;;
22005;SDS011;11167;46.988;15.470;2023-08-07T00:50:23;1.02;;;0.30;;
22005;SDS011;11167;46.988;15.470;2023-08-07T00:52:25;1.15;;;0.33;;
22005;SDS011;11167;46.988;15.470;2023-08-07T00:54:26;1.45;;;0.30;;
22005;SDS011;11167;46.988;15.470;2023-08-07T00:56:27;0.85;;;0.30;;
22005;SDS011;11167;46.988;15.470;2023-08-07T00:58:30;2.08;;;0.47;;
22005;SDS011;11167;46.988;15.470;2023-08-07T01:00:31;0.75;;;0.30;;
22005;SDS011;11167;46.988;15.470;2023-08-07T01:02:32;0.20;;;0.20;;
22005;SDS011;11167;46.988;15.470;2023-08-07T01:04:33;1.15;;;0.30;;
22005;SDS011;11167;46.988;15.470;2023-08-07T01:06:35;1.00;;;0.30;;
22005;SDS011;11167;46.988;15.470;2023-08-07T01:08:36;0.50;;;0.35;;
22005;SDS011;11167;46.988;15.470;2023-08-07T01:13:18;1.07;;;0.30;;
22005;SDS011;11167;46.988;15.470;2023-08-07T01:15:29;0.78;;;0.30;;
22005;SDS011;11167;46.988;15.470;2023-08-07T01:17:31;0.45;;;0.30;;
22005;SDS011;11167;46.988;15.470;2023-08-07T01:19:34;0.50;;;0.40;;
22005;SDS011;11167;46.988;15.470;2023-08-07T01:21:37;0.30;;;0.30;;
22005;SDS011;11167;46.988;15.470;2023-08-07T01:23:38;0.80;;;0.47;;
22005;SDS011;11167;46.988;15.470;2023-08-07T01:25:40;0.40;;;0.30;;
22005;SDS011;11167;46.988;15.470;2023-08-07T01:32:07;1.27;;;0.33;;
22005;SDS011;11167;46.988;15.470;2023-08-07T01:34:09;0.47;;;0.15;;
22005;SDS011;11167;46.988;15.470;2023-08-07T01:36:13;0.40;;;0.20;;
22005;SDS011;11167;46.988;15.470;2023-08-07T01:38:16;0.33;;;0.20;;
22005;SDS011;11167;46.988;15.470;2023-08-07T01:42:23;0.33;;;0.23;;
22005;SDS011;11167;46.988;15.470;2023-08-07T01:44:25;1.05;;;0.30;;
22005;SDS011;11167;46.988;15.470;2023-08-07T01:46:27;0.55;;;0.33;;
22005;SDS011;11167;46.988;15.470;2023-08-07T01:48:28;0.33;;;0.13;;
22005;SDS011;11167;46.988;15.470;2023-08-07T01:50:30;1.00;;;0.37;;
22005;SDS011;11167;46.988;15.470;2023-08-07T01:52:32;0.30;;;0.20;;
22005;SDS011;11167;46.988;15.470;2023-08-07T01:54:33;1.37;;;0.40;;
22005;SDS011;11167;46.988;15.470;2023-08-07T01:56:34;0.20;;;0.20;;
22005;SDS011;11167;46.988;15.470;2023-08-07T01:58:35;0.20;;;0.10;;
22005;SDS011;11167;46.988;15.470;2023-08-07T02:02:57;0.72;;;0.30;;
22005;SDS011;11167;46.988;15.470;2023-08-07T02:04:58;0.82;;;0.40;;
22005;SDS011;11167;46.988;15.470;2023-08-07T02:06:59;0.90;;;0.33;;
22005;SDS011;11167;46.988;15.470;2023-08-07T02:09:00;0.10;;;0.10;;
22005;SDS011;11167;46.988;15.470;2023-08-07T02:11:01;0.98;;;0.33;;
22005;SDS011;11167;46.988;15.470;2023-08-07T02:13:03;0.93;;;0.30;;
22005;SDS011;11167;46.988;15.470;2023-08-07T02:15:04;1.05;;;0.30;;
22005;SDS011;11167;46.988;15.470;2023-08-07T02:17:06;0.70;;;0.30;;
22005;SDS011;11167;46.988;15.470;2023-08-07T02:19:07;0.47;;;0.10;;
22005;SDS011;11167;46.988;15.470;2023-08-07T02:21:08;0.53;;;0.30;;
22005;SDS011;11167;46.988;15.470;2023-08-07T02:23:09;1.35;;;0.28;;
22005;SDS011;11167;46.988;15.470;2023-08-07T02:25:10;1.07;;;0.20;;
22005;SDS011;11167;46.988;15.470;2023-08-07T02:27:12;0.20;;;0.20;;
22005;SDS011;11167;46.988;15.470;2023-08-07T02:29:12;0.35;;;0.10;;
22005;SDS011;11167;46.988;15.470;2023-08-07T02:31:13;1.07;;;0.40;;
22005;SDS011;11167;46.988;15.470;2023-08-07T02:33:14;0.20;;;0.17;;
22005;SDS011;11167;46.988;15.470;2023-08-07T02:35:16;0.20;;;0.20;;
22005;SDS011;11167;46.988;15.470;2023-08-07T02:37:17;0.70;;;0.20;;
22005;SDS011;11167;46.988;15.470;2023-08-07T02:39:18;0.45;;;0.25;;
22005;SDS011;11167;46.988;15.470;2023-08-07T02:41:19;0.88;;;0.30;;
22005;SDS011;11167;46.988;15.470;2023-08-07T02:43:20;0.50;;;0.25;;
22005;SDS011;11167;46.988;15.470;2023-08-07T02:45:21;1.10;;;0.30;;
22005;SDS011;11167;46.988;15.470;2023-08-07T02:47:22;0.65;;;0.30;;
22005;SDS011;11167;46.988;15.470;2023-08-07T02:49:24;0.20;;;0.10;;
22005;SDS011;11167;46.988;15.470;2023-08-07T02:51:25;0.20;;;0.20;;
22005;SDS011;11167;46.988;15.470;2023-08-07T02:53:26;0.40;;;0.20;;
22005;SDS011;11167;46.988;15.470;2023-08-07T02:55:27;0.65;;;0.30;;
22005;SDS011;11167;46.988;15.470;2023-08-07T02:57:29;1.27;;;0.20;;
22005;SDS011;11167;46.988;15.470;2023-08-07T02:59:30;0.60;;;0.30;;
22005;SDS011;11167;46.988;15.470;2023-08-07T03:01:31;0.50;;;0.30;;
22005;SDS011;11167;46.988;15.470;2023-08-07T03:03:32;0.30;;;0.20;;
22005;SDS011;11167;46.988;15.470;2023-08-07T03:05:33;0.47;;;0.25;;
22005;SDS011;11167;46.988;15.470;2023-08-07T03:07:34;0.85;;;0.30;;
22005;SDS011;11167;46.988;15.470;2023-08-07T03:09:35;0.62;;;0.30;;
22005;SDS011;11167;46.988;15.470;2023-08-07T03:11:37;0.90;;;0.30;;
22005;SDS011;11167;46.988;15.470;2023-08-07T03:13:38;0.70;;;0.40;;
22005;SDS011;11167;46.988;15.470;2023-08-07T03:15:39;0.47;;;0.30;;
22005;SDS011;11167;46.988;15.470;2023-08-07T03:17:40;0.80;;;0.40;;
22005;SDS011;11167;46.988;15.470;2023-08-07T03:19:42;0.47;;;0.25;;
22005;SDS011;11167;46.988;15.470;2023-08-07T03:21:44;0.35;;;0.30;;
22005;SDS011;11167;46.988;15.470;2023-08-07T03:23:45;0.42;;;0.37;;
22005;SDS011;11167;46.988;15.470;2023-08-07T03:25:46;0.90;;;0.40;;
22005;SDS011;11167;46.988;15.470;2023-08-07T03:27:47;0.82;;;0.30;;
22005;SDS011;11167;46.988;15.470;2023-08-07T03:29:48;0.55;;;0.40;;
22005;SDS011;11167;46.988;15.470;2023-08-07T03:31:49;0.75;;;0.30;;
22005;SDS011;11167;46.988;15.470;2023-08-07T03:33:51;0.55;;;0.40;;
22005;SDS011;11167;46.988;15.470;2023-08-07T03:35:54;0.33;;;0.28;;
22005;SDS011;11167;46.988;15.470;2023-08-07T03:37:55;1.30;;;0.37;;
22005;SDS011;11167;46.988;15.470;2023-08-07T03:39:56;2.17;;;0.30;;
22005;SDS011;11167;46.988;15.470;2023-08-07T03:41:57;0.40;;;0.30;;
22005;SDS011;11167;46.988;15.470;2023-08-07T03:43:58;0.13;;;0.10;;
22005;SDS011;11167;46.988;15.470;2023-08-07T03:46:00;0.78;;;0.40;;
22005;SDS011;11167;46.988;15.470;2023-08-07T03:48:01;0.80;;;0.40;;
22005;SDS011;11167;46.988;15.470;2023-08-07T03:50:03;0.50;;;0.30;;
22005;SDS011;11167;46.988;15.470;2023-08-07T03:52:06;0.85;;;0.37;;
22005;SDS011;11167;46.988;15.470;2023-08-07T03:54:07;0.65;;;0.30;;
22005;SDS011;11167;46.988;15.470;2023-08-07T03:56:08;0.35;;;0.30;;
22005;SDS011;11167;46.988;15.470;2023-08-07T03:58:09;1.92;;;0.57;;
22005;SDS011;11167;46.988;15.470;2023-08-07T04:00:11;1.22;;;0.30;;
22005;SDS011;11167;46.988;15.470;2023-08-07T04:02:12;0.80;;;0.42;;
22005;SDS011;11167;46.988;15.470;2023-08-07T04:04:13;0.40;;;0.30;;
22005;SDS011;11167;46.988;15.470;2023-08-07T04:06:14;0.70;;;0.20;;
22005;SDS011;11167;46.988;15.470;2023-08-07T04:08:16;4.00;;;0.47;;
22005;SDS011;11167;46.988;15.470;2023-08-07T04:10:18;1.27;;;0.62;;
22005;SDS011;11167;46.988;15.470;2023-08-07T04:12:19;2.15;;;0.20;;
22005;SDS011;11167;46.988;15.470;2023-08-07T04:14:20;0.98;;;0.40;;
22005;SDS011;11167;46.988;15.470;2023-08-07T04:16:21;0.40;;;0.20;;
22005;SDS011;11167;46.988;15.470;2023-08-07T04:18:23;1.10;;;0.35;;
22005;SDS011;11167;46.988;15.470;2023-08-07T04:20:24;0.28;;;0.20;;
22005;SDS011;11167;46.988;15.470;2023-08-07T04:22:25;0.60;;;0.40;;
22005;SDS011;11167;46.988;15.470;2023-08-07T04:24:26;1.10;;;0.30;;
22005;SDS011;11167;46.988;15.470;2023-08-07T04:26:27;1.10;;;0.10;;
22005;SDS011;11167;46.988;15.470;2023-08-07T04:28:28;0.28;;;0.20;;
22005;SDS011;11167;46.988;15.470;2023-08-07T04:30:30;0.85;;;0.30;;
22005;SDS011;11167;46.988;15.470;2023-08-07T04:32:31;0.53;;;0.30;;
22005;SDS011;11167;46.988;15.470;2023-08-07T04:34:32;0.88;;;0.20;;
22005;SDS011;11167;46.988;15.470;2023-08-07T04:36:33;0.85;;;0.28;;
22005;SDS011;11167;46.988;15.470;2023-08-07T04:38:34;1.52;;;0.25;;
22005;SDS011;11167;46.988;15.470;2023-08-07T04:40:35;1.10;;;0.20;;
22005;SDS011;11167;46.988;15.470;2023-08-07T04:44:51;1.17;;;0.30;;
22005;SDS011;11167;46.988;15.470;2023-08-07T04:46:52;0.70;;;0.40;;
22005;SDS011;11167;46.988;15.470;2023-08-07T04:48:53;0.68;;;0.30;;
22005;SDS011;11167;46.988;15.470;2023-08-07T04:50:55;0.90;;;0.30;;
22005;SDS011;11167;46.988;15.470;2023-08-07T04:52:56;1.05;;;0.40;;
22005;SDS011;11167;46.988;15.470;2023-08-07T04:54:57;1.15;;;0.30;;
22005;SDS011;11167;46.988;15.470;2023-08-07T04:56:58;1.52;;;0.40;;
22005;SDS011;11167;46.988;15.470;2023-08-07T04:58:59;1.00;;;0.47;;
22005;SDS011;11167;46.988;15.470;2023-08-07T05:01:02;0.42;;;0.40;;
22005;SDS011;11167;46.988;15.470;2023-08-07T05:03:03;0.70;;;0.20;;
22005;SDS011;11167;46.988;15.470;2023-08-07T05:05:05;0.30;;;0.23;;
22005;SDS011;11167;46.988;15.470;2023-08-07T05:07:06;0.60;;;0.30;;
22005;SDS011;11167;46.988;15.470;2023-08-07T05:09:08;0.33;;;0.13;;
22005;SDS011;11167;46.988;15.470;2023-08-07T05:11:09;0.60;;;0.30;;
22005;SDS011;11167;46.988;15.470;2023-08-07T05:13:10;1.40;;;0.40;;
22005;SDS011;11167;46.988;15.470;2023-08-07T05:15:11;0.30;;;0.20;;
22005;SDS011;11167;46.988;15.470;2023-08-07T05:17:12;0.57;;;0.30;;
22005;SDS011;11167;46.988;15.470;2023-08-07T05:19:13;0.82;;;0.40;;
22005;SDS011;11167;46.988;15.470;2023-08-07T05:21:14;0.45;;;0.30;;
22005;SDS011;11167;46.988;15.470;2023-08-07T05:23:16;0.42;;;0.40;;
22005;SDS011;11167;46.988;15.470;2023-08-07T05:25:19;0.30;;;0.30;;
22005;SDS011;11167;46.988;15.470;2023-08-07T05:27:20;4.97;;;0.30;;
22005;SDS011;11167;46.988;15.470;2023-08-07T05:29:22;0.50;;;0.30;;
22005;SDS011;11167;46.988;15.470;2023-08-07T05:31:23;0.88;;;0.50;;
22005;SDS011;11167;46.988;15.470;2023-08-07T05:33:25;0.57;;;0.30;;
22005;SDS011;11167;46.988;15.470;2023-08-07T05:35:26;0.33;;;0.30;;
22005;SDS011;11167;46.988;15.470;2023-08-07T05:37:27;0.95;;;0.40;;
22005;SDS011;11167;46.988;15.470;2023-08-07T05:39:30;1.15;;;0.50;;
22005;SDS011;11167;46.988;15.470;2023-08-07T05:41:32;0.85;;;0.47;;
22005;SDS011;11167;46.988;15.470;2023-08-07T05:43:33;0.57;;;0.40;;
22005;SDS011;11167;46.988;15.470;2023-08-07T05:45:34;1.25;;;0.50;;
22005;SDS011;11167;46.988;15.470;2023-08-07T05:47:35;0.40;;;0.40;;
22005;SDS011;11167;46.988;15.470;2023-08-07T05:49:36;0.70;;;0.40;;
22005;SDS011;11167;46.988;15.470;2023-08-07T05:51:37;0.80;;;0.50;;
22005;SDS011;11167;46.988;15.470;2023-08-07T05:53:38;0.47;;;0.45;;
22005;SDS011;11167;46.988;15.470;2023-08-07T05:55:39;1.82;;;0.60;;
22005;SDS011;11167;46.988;15.470;2023-08-07T05:57:44;1.70;;;0.60;;
22005;SDS011;11167;46.988;15.470;2023-08-07T05:59:45;0.95;;;0.65;;
22005;SDS011;11167;46.988;15.470;2023-08-07T06:01:46;0.98;;;0.60;;
22005;SDS011;11167;46.988;15.470;2023-08-07T06:03:47;0.90;;;0.78;;
22005;SDS011;11167;46.988;15.470;2023-08-07T06:05:48;1.10;;;0.70;;
22005;SDS011;11167;46.988;15.470;2023-08-07T06:07:49;0.70;;;0.70;;
22005;SDS011;11167;46.988;15.470;2023-08-07T06:09:52;1.75;;;0.88;;
22005;SDS011;11167;46.988;15.470;2023-08-07T06:11:53;0.90;;;0.72;;
22005;SDS011;11167;46.988;15.470;2023-08-07T06:13:55;0.98;;;0.78;;
22005;SDS011;11167;46.988;15.470;2023-08-07T06:15:56;1.02;;;0.72;;
22005;SDS011;11167;46.988;15.470;2023-08-07T06:17:57;1.57;;;0.75;;
22005;SDS011;11167;46.988;15.470;2023-08-07T06:19:58;1.62;;;0.88;;
22005;SDS011;11167;46.988;15.470;2023-08-07T06:21:59;1.75;;;0.80;;
22005;SDS011;11167;46.988;15.470;2023-08-07T06:24:01;1.35;;;0.68;;
22005;SDS011;11167;46.988;15.470;2023-08-07T06:26:01;0.72;;;0.60;;
22005;SDS011;11167;46.988;15.470;2023-08-07T06:28:07;1.00;;;0.60;;
22005;SDS011;11167;46.988;15.470;2023-08-07T06:30:09;1.02;;;0.82;;
22005;SDS011;11167;46.988;15.470;2023-08-07T06:32:11;1.47;;;0.70;;
22005;SDS011;11167;46.988;15.470;2023-08-07T06:34:12;1.52;;;0.60;;
22005;SDS011;11167;46.988;15.470;2023-08-07T06:36:13;0.90;;;0.60;;
22005;SDS011;11167;46.988;15.470;2023-08-07T06:38:14;0.93;;;0.65;;
22005;SDS011;11167;46.988;15.470;2023-08-07T06:40:15;0.98;;;0.62;;
22005;SDS011;11167;46.988;15.470;2023-08-07T06:42:16;1.57;;;0.70;;
22005;SDS011;11167;46.988;15.470;2023-08-07T06:44:17;1.35;;;0.60;;
22005;SDS011;11167;46.988;15.470;2023-08-07T06:46:19;0.80;;;0.42;;
22005;SDS011;11167;46.988;15.470;2023-08-07T06:48:22;0.85;;;0.50;;
22005;SDS011;11167;46.988;15.470;2023-08-07T06:50:24;1.82;;;0.68;;
22005;SDS011;11167;46.988;15.470;2023-08-07T06:52:25;1.77;;;0.70;;
22005;SDS011;11167;46.988;15.470;2023-08-07T06:54:26;0.90;;;0.78;;
22005;SDS011;11167;46.988;15.470;2023-08-07T06:56:27;0.80;;;0.60;;
22005;SDS011;11167;46.988;15.470;2023-08-07T06:58:29;0.82;;;0.60;;
22005;SDS011;11167;46.988;15.470;2023-08-07T07:00:30;1.17;;;0.78;;
22005;SDS011;11167;46.988;15.470;2023-08-07T07:02:32;0.85;;;0.68;;
22005;SDS011;11167;46.988;15.470;2023-08-07T07:04:33;0.95;;;0.70;;
22005;SDS011;11167;46.988;15.470;2023-08-07T07:06:34;0.60;;;0.60;;
22005;SDS011;11167;46.988;15.470;2023-08-07T07:08:35;1.62;;;0.70;;
22005;SDS011;11167;46.988;15.470;2023-08-07T07:10:36;0.57;;;0.57;;
22005;SDS011;11167;46.988;15.470;2023-08-07T07:12:38;0.60;;;0.30;;
22005;SDS011;11167;46.988;15.470;2023-08-07T07:14:39;2.10;;;0.80;;
22005;SDS011;11167;46.988;15.470;2023-08-07T07:16:40;1.55;;;0.70;;
22005;SDS011;11167;46.988;15.470;2023-08-07T07:18:42;0.70;;;0.45;;
22005;SDS011;11167;46.988;15.470;2023-08-07T07:20:43;1.45;;;0.60;;
22005;SDS011;11167;46.988;15.470;2023-08-07T07:22:44;1.00;;;0.60;;
22005;SDS011;11167;46.988;15.470;2023-08-07T07:24:45;0.82;;;0.70;;
22005;SDS011;11167;46.988;15.470;2023-08-07T07:26:47;1.32;;;0.60;;
22005;SDS011;11167;46.988;15.470;2023-08-07T07:28:49;0.70;;;0.65;;
22005;SDS011;11167;46.988;15.470;2023-08-07T07:30:51;0.90;;;0.50;;
22005;SDS011;11167;46.988;15.470;2023-08-07T07:32:59;1.50;;;0.80;;
22005;SDS011;11167;46.988;15.470;2023-08-07T07:35:01;0.50;;;0.50;;
22005;SDS011;11167;46.988;15.470;2023-08-07T07:37:11;0.88;;;0.60;;
22005;SDS011;11167;46.988;15.470;2023-08-07T07:39:21;0.82;;;0.57;;
22005;SDS011;11167;46.988;15.470;2023-08-07T07:41:24;1.35;;;0.50;;
22005;SDS011;11167;46.988;15.470;2023-08-07T07:43:29;0.60;;;0.40;;
22005;SDS011;11167;46.988;15.470;2023-08-07T07:45:32;0.70;;;0.30;;
22005;SDS011;11167;46.988;15.470;2023-08-07T07:47:42;1.22;;;0.30;;
22005;SDS011;11167;46.988;15.470;2023-08-07T07:49:44;0.33;;;0.33;;
22005;SDS011;11167;46.988;15.470;2023-08-07T07:52:03;0.60;;;0.40;;
22005;SDS011;11167;46.988;15.470;2023-08-07T07:54:11;1.45;;;0.40;;
22005;SDS011;11167;46.988;15.470;2023-08-07T07:56:17;0.50;;;0.40;;
22005;SDS011;11167;46.988;15.470;2023-08-07T07:58:23;0.57;;;0.40;;
22005;SDS011;11167;46.988;15.470;2023-08-07T08:00:29;0.53;;;0.40;;
22005;SDS011;11167;46.988;15.470;2023-08-07T08:02:34;0.40;;;0.40;;
22005;SDS011;11167;46.988;15.470;2023-08-07T08:04:58;0.68;;;0.37;;
22005;SDS011;11167;46.988;15.470;2023-08-07T08:07:03;0.37;;;0.20;;
22005;SDS011;11167;46.988;15.470;2023-08-07T08:09:25;0.42;;;0.30;;
22005;SDS011;11167;46.988;15.470;2023-08-07T08:11:28;0.28;;;0.28;;
22005;SDS011;11167;46.988;15.470;2023-08-07T08:13:29;0.17;;;0.17;;
22005;SDS011;11167;46.988;15.470;2023-08-07T08:15:30;0.15;;;0.13;;
22005;SDS011;11167;46.988;15.470;2023-08-07T08:17:31;0.20;;;0.20;;
22005;SDS011;11167;46.988;15.470;2023-08-07T08:19:32;0.62;;;0.35;;
22005;SDS011;11167;46.988;15.470;2023-08-07T08:27:45;0.10;;;0.10;;
22005;SDS011;11167;46.988;15.470;2023-08-07T09:03:47;0.47;;;0.33;;
22005;SDS011;11167;46.988;15.470;2023-08-07T09:05:48;0.80;;;0.37;;
22005;SDS011;11167;46.988;15.470;2023-08-07T09:07:53;0.30;;;0.30;;
22005;SDS011;11167;46.988;15.470;2023-08-07T09:09:54;0.40;;;0.28;;
22005;SDS011;11167;46.988;15.470;2023-08-07T09:11:57;0.63;;;0.33;;
22005;SDS011;11167;46.988;15.470;2023-08-07T09:14:00;0.20;;;0.20;;
22005;SDS011;11167;46.988;15.470;2023-08-07T09:16:04;0.23;;;0.20;;
22005;SDS011;11167;46.988;15.470;2023-08-07T09:18:09;0.30;;;0.17;;
22005;SDS011;11167;46.988;15.470;2023-08-07T09:20:12;0.15;;;0.10;;
22005;SDS011;11167;46.988;15.470;2023-08-07T09:22:15;0.10;;;0.10;;
22005;SDS011;11167;46.988;15.470;2023-08-07T09:24:16;0.40;;;0.20;;
22005;SDS011;11167;46.988;15.470;2023-08-07T09:26:23;0.50;;;0.40;;
22005;SDS011;11167;46.988;15.470;2023-08-07T09:28:24;0.45;;;0.20;;
22005;SDS011;11167;46.988;15.470;2023-08-07T09:30:28;0.33;;;0.25;;
22005;SDS011;11167;46.988;15.470;2023-08-07T09:32:30;0.20;;;0.20;;
22005;SDS011;11167;46.988;15.470;2023-08-07T09:34:31;0.20;;;0.20;;
22005;SDS011;11167;46.988;15.470;2023-08-07T09:36:32;0.35;;;0.28;;
22005;SDS011;11167;46.988;15.470;2023-08-07T09:38:34;0.30;;;0.30;;
22005;SDS011;11167;46.988;15.470;2023-08-07T09:40:36;0.20;;;0.20;;
22005;SDS011;11167;46.988;15.470;2023-08-07T09:42:40;0.55;;;0.30;;
22005;SDS011;11167;46.988;15.470;2023-08-07T09:44:42;0.68;;;0.30;;
22005;SDS011;11167;46.988;15.470;2023-08-07T09:46:46;0.17;;;0.17;;
22005;SDS011;11167;46.988;15.470;2023-08-07T09:48:48;0.30;;;0.30;;
22005;SDS011;11167;46.988;15.470;2023-08-07T09:50:52;0.50;;;0.20;;
22005;SDS011;11167;46.988;15.470;2023-08-07T09:52:59;0.20;;;0.15;;
22005;SDS011;11167;46.988;15.470;2023-08-07T09:55:00;0.30;;;0.28;;
22005;SDS011;11167;46.988;15.470;2023-08-07T09:57:04;0.33;;;0.20;;
22005;SDS011;11167;46.988;15.470;2023-08-07T10:01:09;0.20;;;0.20;;
22005;SDS011;11167;46.988;15.470;2023-08-07T10:08:17;0.20;;;0.20;;
22005;SDS011;11167;46.988;15.470;2023-08-07T10:10:22;0.17;;;0.17;;
22005;SDS011;11167;46.988;15.470;2023-08-07T10:12:26;0.15;;;0.10;;
22005;SDS011;11167;46.988;15.470;2023-08-07T10:14:29;0.10;;;0.10;;
22005;SDS011;11167;46.988;15.470;2023-08-07T10:16:30;0.28;;;0.20;;
22005;SDS011;11167;46.988;15.470;2023-08-07T10:20:37;0.85;;;0.37;;
22005;SDS011;11167;46.988;15.470;2023-08-07T10:22:41;0.20;;;0.20;;
22005;SDS011;11167;46.988;15.470;2023-08-07T10:24:43;0.30;;;0.10;;
22005;SDS011;11167;46.988;15.470;2023-08-07T10:26:49;0.35;;;0.20;;
22005;SDS011;11167;46.988;15.470;2023-08-07T10:28:53;0.50;;;0.20;;
22005;SDS011;11167;46.988;15.470;2023-08-07T10:30:54;0.20;;;0.20;;
22005;SDS011;11167;46.988;15.470;2023-08-07T10:32:57;0.23;;;0.23;;
22005;SDS011;11167;46.988;15.470;2023-08-07T10:35:04;0.30;;;0.30;;
22005;SDS011;11167;46.988;15.470;2023-08-07T10:37:06;0.28;;;0.17;;
22005;SDS011;11167;46.988;15.470;2023-08-07T10:39:14;0.17;;;0.17;;
22005;SDS011;11167;46.988;15.470;2023-08-07T10:41:20;0.50;;;0.25;;
22005;SDS011;11167;46.988;15.470;2023-08-07T10:43:21;0.47;;;0.30;;
22005;SDS011;11167;46.988;15.470;2023-08-07T10:45:26;0.37;;;0.28;;
22005;SDS011;11167;46.988;15.470;2023-08-07T10:47:36;0.60;;;0.20;;
22005;SDS011;11167;46.988;15.470;2023-08-07T10:51:39;0.20;;;0.20;;
22005;SDS011;11167;46.988;15.470;2023-08-07T10:53:44;0.30;;;0.30;;
22005;SDS011;11167;46.988;15.470;2023-08-07T10:55:55;0.20;;;0.20;;
22005;SDS011;11167;46.988;15.470;2023-08-07T10:58:01;1.12;;;0.30;;
22005;SDS011;11167;46.988;15.470;2023-08-07T11:00:04;0.50;;;0.25;;
22005;SDS011;11167;46.988;15.470;2023-08-07T11:02:07;0.45;;;0.30;;
22005;SDS011;11167;46.988;15.470;2023-08-07T11:04:13;0.53;;;0.30;;
22005;SDS011;11167;46.988;15.470;2023-08-07T11:06:23;0.25;;;0.25;;
22005;SDS011;11167;46.988;15.470;2023-08-07T11:10:40;0.40;;;0.20;;
22005;SDS011;11167;46.988;15.470;2023-08-07T11:12:41;0.20;;;0.17;;
22005;SDS011;11167;46.988;15.470;2023-08-07T11:14:45;0.80;;;0.20;;
22005;SDS011;11167;46.988;15.470;2023-08-07T11:16:49;0.65;;;0.30;;
22005;SDS011;11167;46.988;15.470;2023-08-07T11:18:52;0.10;;;0.10;;
22005;SDS011;11167;46.988;15.470;2023-08-07T11:23:15;0.37;;;0.33;;
22005;SDS011;11167;46.988;15.470;2023-08-07T11:25:17;0.85;;;0.50;;
22005;SDS011;11167;46.988;15.470;2023-08-07T11:27:31;0.25;;;0.23;;
22005;SDS011;11167;46.988;15.470;2023-08-07T11:29:47;0.40;;;0.30;;
22005;SDS011;11167;46.988;15.470;2023-08-07T11:31:56;0.50;;;0.25;;
22005;SDS011;11167;46.988;15.470;2023-08-07T11:33:57;0.28;;;0.20;;
22005;SDS011;11167;46.988;15.470;2023-08-07T11:35:59;0.30;;;0.30;;
22005;SDS011;11167;46.988;15.470;2023-08-07T11:38:00;0.30;;;0.30;;
22005;SDS011;11167;46.988;15.470;2023-08-07T11:40:07;0.20;;;0.20;;
22005;SDS011;11167;46.988;15.470;2023-08-07T11:42:09;0.20;;;0.20;;
22005;SDS011;11167;46.988;15.470;2023-08-07T11:44:14;0.40;;;0.40;;
22005;SDS011;11167;46.988;15.470;2023-08-07T11:48:23;0.30;;;0.30;;
22005;SDS011;11167;46.988;15.470;2023-08-07T11:50:30;0.20;;;0.20;;
22005;SDS011;11167;46.988;15.470;2023-08-07T11:52:33;0.40;;;0.40;;
22005;SDS011;11167;46.988;15.470;2023-08-07T11:54:34;0.53;;;0.30;;
22005;SDS011;11167;46.988;15.470;2023-08-07T11:56:36;0.20;;;0.20;;
22005;SDS011;11167;46.988;15.470;2023-08-07T11:58:45;0.20;;;0.20;;
22005;SDS011;11167;46.988;15.470;2023-08-07T12:00:46;0.35;;;0.25;;
22005;SDS011;11167;46.988;15.470;2023-08-07T12:05:10;0.30;;;0.30;;
22005;SDS011;11167;46.988;15.470;2023-08-07T12:07:20;0.20;;;0.20;;
22005;SDS011;11167;46.988;15.470;2023-08-07T12:09:20;0.23;;;0.23;;
22005;SDS011;11167;46.988;15.470;2023-08-07T12:11:21;0.40;;;0.20;;
22005;SDS011;11167;46.988;15.470;2023-08-07T12:13:23;1.47;;;0.33;;
22005;SDS011;11167;46.988;15.470;2023-08-07T12:15:27;0.20;;;0.20;;
22005;SDS011;11167;46.988;15.470;2023-08-07T12:17:30;0.35;;;0.35;;
22005;SDS011;11167;46.988;15.470;2023-08-07T12:19:40;0.62;;;0.30;;
22005;SDS011;11167;46.988;15.470;2023-08-07T12:21:43;0.60;;;0.37;;
22005;SDS011;11167;46.988;15.470;2023-08-07T12:23:45;0.20;;;0.20;;
22005;SDS011;11167;46.988;15.470;2023-08-07T12:25:49;0.40;;;0.25;;
22005;SDS011;11167;46.988;15.470;2023-08-07T12:27:50;0.20;;;0.20;;
22005;SDS011;11167;46.988;15.470;2023-08-07T12:29:53;0.33;;;0.33;;
22005;SDS011;11167;46.988;15.470;2023-08-07T12:31:55;0.65;;;0.25;;
22005;SDS011;11167;46.988;15.470;2023-08-07T12:33:56;0.50;;;0.30;;
22005;SDS011;11167;46.988;15.470;2023-08-07T12:35:57;0.30;;;0.20;;
22005;SDS011;11167;46.988;15.470;2023-08-07T12:38:00;0.70;;;0.30;;
22005;SDS011;11167;46.988;15.470;2023-08-07T12:40:03;0.65;;;0.60;;
22005;SDS011;11167;46.988;15.470;2023-08-07T12:42:06;0.35;;;0.25;;
22005;SDS011;11167;46.988;15.470;2023-08-07T12:44:08;0.62;;;0.42;;
22005;SDS011;11167;46.988;15.470;2023-08-07T12:46:09;0.78;;;0.40;;
22005;SDS011;11167;46.988;15.470;2023-08-07T12:48:10;0.35;;;0.33;;
22005;SDS011;11167;46.988;15.470;2023-08-07T12:50:11;0.40;;;0.37;;
22005;SDS011;11167;46.988;15.470;2023-08-07T12:52:13;0.40;;;0.30;;
22005;SDS011;11167;46.988;15.470;2023-08-07T12:54:14;0.80;;;0.40;;
22005;SDS011;11167;46.988;15.470;2023-08-07T12:56:15;0.28;;;0.28;;
22005;SDS011;11167;46.988;15.470;2023-08-07T12:58:16;0.45;;;0.30;;
22005;SDS011;11167;46.988;15.470;2023-08-07T13:00:19;0.45;;;0.40;;
22005;SDS011;11167;46.988;15.470;2023-08-07T13:02:21;0.62;;;0.37;;
22005;SDS011;11167;46.988;15.470;2023-08-07T13:04:22;0.47;;;0.40;;
22005;SDS011;11167;46.988;15.470;2023-08-07T13:06:23;1.07;;;0.47;;
22005;SDS011;11167;46.988;15.470;2023-08-07T13:08:24;0.53;;;0.40;;
22005;SDS011;11167;46.988;15.470;2023-08-07T13:10:26;0.50;;;0.40;;
22005;SDS011;11167;46.988;15.470;2023-08-07T13:12:33;0.42;;;0.37;;
22005;SDS011;11167;46.988;15.470;2023-08-07T13:14:35;0.55;;;0.42;;
22005;SDS011;11167;46.988;15.470;2023-08-07T13:16:36;0.40;;;0.40;;
22005;SDS011;11167;46.988;15.470;2023-08-07T13:18:38;0.60;;;0.50;;
22005;SDS011;11167;46.988;15.470;2023-08-07T13:20:39;0.60;;;0.55;;